Time;durP1;ratioP1;P1;durP2;ratioP2;P2;SDS_P1;SDS_P2;PMS_P1;PMS_P2;Temp;Humidity;BMP_temperature;BMP_pressure;BME280_temperature;BME280_humidity;BME280_pressure;Samples;Min_cycle;Max_cycle;Signal;HPM_P1;HPM_P2
2023/05/02 00:00:31;;;;;;;1.23;1.17;;;;;8.00;96074.00;;;;5058335;28;20195;-64
2023/05/02 00:02:59;;;;;;;0.97;0.97;;;;;8.00;96079.00;;;;5076465;28;20687;-64
2023/05/02 00:05:27;;;;;;;1.37;1.33;;;;;8.00;96078.00;;;;5076273;28;20245;-64
2023/05/02 00:07:55;;;;;;;1.30;1.00;;;;;7.90;96068.00;;;;5076188;28;20192;-64
2023/05/02 00:10:22;;;;;;;1.03;0.93;;;;;7.80;96067.00;;;;5076425;28;20200;-64
2023/05/02 00:12:49;;;;;;;0.63;0.63;;;;;7.70;96068.00;;;;5076039;28;20211;-64
2023/05/02 00:15:18;;;;;;;1.37;1.00;;;;;7.60;96070.00;;;;5076037;28;20215;-64
2023/05/02 00:17:46;;;;;;;1.40;1.30;;;;;7.50;96073.00;;;;5076060;28;20195;-64
2023/05/02 00:20:13;;;;;;;1.07;1.07;;;;;7.60;96075.00;;;;5058092;28;20217;-64
2023/05/02 00:22:41;;;;;;;1.97;1.87;;;;;7.50;96071.00;;;;5075974;28;20763;-64
2023/05/02 00:25:09;;;;;;;0.73;0.73;;;;;7.50;96072.00;;;;5076031;28;20261;-64
2023/05/02 00:27:36;;;;;;;0.87;0.87;;;;;7.40;96065.00;;;;5075814;28;20196;-64
2023/05/02 00:30:04;;;;;;;1.30;1.30;;;;;7.50;96078.00;;;;5075815;28;20195;-64
2023/05/02 00:32:33;;;;;;;1.10;1.10;;;;;7.40;96077.00;;;;5075939;28;20218;-65
2023/05/02 00:35:00;;;;;;;1.40;1.30;;;;;7.40;96081.00;;;;5075632;28;20212;-65
2023/05/02 00:37:28;;;;;;;0.80;0.80;;;;;7.30;96080.00;;;;5075673;28;20203;-65
2023/05/02 00:39:55;;;;;;;2.10;1.57;;;;;7.30;96082.00;;;;5075879;28;20671;-65
2023/05/02 00:42:22;;;;;;;1.30;1.30;;;;;7.30;96078.00;;;;5075392;28;20219;-65
2023/05/02 00:44:50;;;;;;;1.47;1.43;;;;;7.30;96076.00;;;;5075812;28;20192;-65
2023/05/02 00:47:18;;;;;;;1.07;1.07;;;;;7.30;96081.00;;;;5075796;28;20253;-65
2023/05/02 00:49:47;;;;;;;1.17;1.17;;;;;7.20;96086.00;;;;5075572;28;20199;-65
2023/05/02 00:52:14;;;;;;;1.27;1.27;;;;;7.20;96084.00;;;;5075374;28;20340;-64
2023/05/02 00:54:42;;;;;;;0.53;0.53;;;;;7.30;96083.00;;;;5075526;28;20578;-65
2023/05/02 00:57:09;;;;;;;0.87;0.80;;;;;7.40;96079.00;;;;5075316;28;20283;-65
2023/05/02 00:59:37;;;;;;;0.90;0.90;;;;;7.50;96089.00;;;;5075265;28;20202;-65
2023/05/02 01:02:22;;;;;;;1.00;1.00;;;;;7.60;96087.00;;;;5057199;28;20215;-64
2023/05/02 01:05:05;;;;;;;0.97;0.97;;;;;7.50;96095.00;;;;5057263;28;20674;-65
2023/05/02 01:07:54;;;;;;;1.07;1.07;;;;;7.40;96091.00;;;;5075747;28;20191;-65
2023/05/02 01:10:30;;;;;;;0.70;0.70;;;;;7.50;96087.00;;;;5075021;28;20623;-65
2023/05/02 01:13:04;;;;;;;0.83;0.83;;;;;7.50;96083.00;;;;5075003;28;20206;-64
2023/05/02 01:15:32;;;;;;;0.60;0.60;;;;;7.40;96078.00;;;;5075233;28;20215;-65
2023/05/02 01:18:01;;;;;;;1.00;1.00;;;;;7.30;96084.00;;;;5075443;28;20249;-65
2023/05/02 01:20:32;;;;;;;0.83;0.83;;;;;7.40;96083.00;;;;5075180;28;20222;-65
2023/05/02 01:23:07;;;;;;;1.23;1.23;;;;;7.30;96091.00;;;;5074877;28;20215;-64
2023/05/02 01:25:48;;;;;;;0.90;0.90;;;;;7.20;96094.00;;;;5075140;28;20357;-65
2023/05/02 01:28:27;;;;;;;0.73;0.73;;;;;7.30;96083.00;;;;5074751;28;20274;-65
2023/05/02 01:30:57;;;;;;;0.83;0.83;;;;;7.30;96089.00;;;;5074740;28;20237;-65
2023/05/02 01:33:28;;;;;;;0.90;0.90;;;;;7.20;96091.00;;;;5057326;28;20706;-65
2023/05/02 01:35:57;;;;;;;0.70;0.70;;;;;7.20;96090.00;;;;5074849;28;20203;-65
2023/05/02 01:38:27;;;;;;;0.93;0.93;;;;;7.20;96083.00;;;;5074533;28;20245;-65
2023/05/02 01:40:56;;;;;;;0.80;0.80;;;;;7.10;96083.00;;;;5074438;28;20218;-65
2023/05/02 01:43:25;;;;;;;2.77;1.53;;;;;7.20;96087.00;;;;5074195;28;20226;-65
2023/05/02 01:45:57;;;;;;;1.40;1.30;;;;;7.10;96086.00;;;;5074924;28;20665;-65
2023/05/02 01:48:27;;;;;;;0.80;0.80;;;;;7.10;96079.00;;;;5074643;28;20183;-65
2023/05/02 01:50:57;;;;;;;1.07;1.07;;;;;7.10;96085.00;;;;5074371;28;20654;-65
2023/05/02 01:53:26;;;;;;;1.30;1.20;;;;;7.00;96081.00;;;;5074474;28;20311;-65
2023/05/02 01:55:55;;;;;;;0.90;0.90;;;;;6.90;96093.00;;;;5074128;28;20226;-65
2023/05/02 01:58:23;;;;;;;1.40;1.07;;;;;6.90;96093.00;;;;5074422;28;20531;-65
2023/05/02 02:00:52;;;;;;;1.63;1.53;;;;;6.80;96103.00;;;;5074075;28;20192;-65
2023/05/02 02:03:22;;;;;;;1.30;1.30;;;;;6.80;96094.00;;;;5074064;28;20211;-65
2023/05/02 02:05:51;;;;;;;1.27;1.27;;;;;6.80;96094.00;;;;5074224;28;20188;-65
2023/05/02 02:08:18;;;;;;;0.70;0.70;;;;;6.80;96101.00;;;;5073934;28;20354;-65
2023/05/02 02:10:53;;;;;;;0.80;0.80;;;;;6.90;96102.00;;;;5073890;28;20199;-65
2023/05/02 02:13:29;;;;;;;0.70;0.70;;;;;6.90;96099.00;;;;5073818;28;20210;-65
2023/05/02 02:16:02;;;;;;;1.37;1.27;;;;;6.90;96093.00;;;;5074177;28;20195;-65
2023/05/02 02:18:36;;;;;;;0.80;0.80;;;;;6.80;96105.00;;;;5073827;28;20192;-65
2023/05/02 02:21:06;;;;;;;1.00;1.00;;;;;6.90;96103.00;;;;5073427;28;20634;-65
2023/05/02 02:23:36;;;;;;;1.10;1.10;;;;;7.00;96106.00;;;;5073593;28;20273;-65
2023/05/02 02:26:06;;;;;;;1.23;1.17;;;;;6.90;96107.00;;;;5073675;28;20195;-65
2023/05/02 02:28:35;;;;;;;1.30;1.30;;;;;7.00;96107.00;;;;5073566;28;20191;-65
2023/05/02 02:31:02;;;;;;;1.57;1.47;;;;;6.90;96114.00;;;;5074337;28;20674;-65
2023/05/02 02:33:32;;;;;;;0.83;0.83;;;;;6.80;96114.00;;;;5073488;28;20207;-65
2023/05/02 02:36:08;;;;;;;1.03;1.03;;;;;6.90;96120.00;;;;5073962;28;20223;-65
2023/05/02 02:38:42;;;;;;;0.70;0.70;;;;;6.90;96115.00;;;;5073998;28;20187;-65
2023/05/02 02:41:15;;;;;;;1.37;1.27;;;;;6.90;96110.00;;;;5073730;28;20275;-65
2023/05/02 02:43:52;;;;;;;0.80;0.80;;;;;7.00;96115.00;;;;5073258;28;20264;-65
2023/05/02 02:46:32;;;;;;;0.67;0.67;;;;;7.00;96118.00;;;;5073428;28;20175;-65
2023/05/02 02:49:15;;;;;;;0.93;0.93;;;;;6.90;96125.00;;;;5073654;28;20542;-65
2023/05/02 02:51:49;;;;;;;0.63;0.63;;;;;6.80;96123.00;;;;5073455;28;20694;-65
2023/05/02 02:54:23;;;;;;;0.70;0.70;;;;;6.80;96122.00;;;;5073289;28;20241;-65
2023/05/02 02:57:00;;;;;;;2.03;1.20;;;;;6.90;96138.00;;;;5073394;28;20204;-65
2023/05/02 02:59:31;;;;;;;0.80;0.80;;;;;7.00;96140.00;;;;5073293;28;20213;-65
2023/05/02 03:02:05;;;;;;;0.60;0.60;;;;;7.00;96144.00;;;;5073265;28;20739;-65
2023/05/02 03:04:37;;;;;;;0.80;0.80;;;;;7.00;96146.00;;;;5073459;28;20183;-65
2023/05/02 03:07:05;;;;;;;1.40;1.40;;;;;6.90;96148.00;;;;5073365;28;20550;-65
2023/05/02 03:09:41;;;;;;;1.10;1.10;;;;;6.80;96152.00;;;;5073356;28;20577;-65
2023/05/02 03:12:08;;;;;;;1.00;1.00;;;;;6.70;96142.00;;;;5073049;28;20211;-65
2023/05/02 03:14:36;;;;;;;1.13;1.13;;;;;6.70;96150.00;;;;5072963;28;20257;-65
2023/05/02 03:17:04;;;;;;;1.20;1.03;;;;;6.60;96153.00;;;;5073361;28;20230;-65
2023/05/02 03:19:31;;;;;;;0.80;0.80;;;;;6.60;96157.00;;;;5073219;28;20203;-66
2023/05/02 03:22:00;;;;;;;0.90;0.90;;;;;6.50;96156.00;;;;5072947;28;20710;-65
2023/05/02 03:24:27;;;;;;;1.20;1.20;;;;;6.40;96161.00;;;;5072974;28;20270;-65
2023/05/02 03:26:56;;;;;;;1.27;1.27;;;;;6.30;96167.00;;;;5072944;28;20202;-65
2023/05/02 03:29:23;;;;;;;1.00;1.00;;;;;6.40;96165.00;;;;5072934;28;20274;-66
2023/05/02 03:31:51;;;;;;;1.13;1.10;;;;;6.50;96170.00;;;;5073387;28;20223;-65
2023/05/02 03:34:21;;;;;;;0.90;0.90;;;;;6.50;96181.00;;;;5076679;28;20262;-65
2023/05/02 03:36:48;;;;;;;2.03;1.93;;;;;6.50;96175.00;;;;5076655;28;20215;-65
2023/05/02 03:39:17;;;;;;;1.43;1.33;;;;;6.50;96170.00;;;;5076778;28;20198;-65
2023/05/02 03:41:45;;;;;;;0.90;0.90;;;;;6.60;96184.00;;;;5076990;28;20215;-65
2023/05/02 03:44:12;;;;;;;0.80;0.80;;;;;6.60;96184.00;;;;5076989;28;20187;-65
2023/05/02 03:46:39;;;;;;;0.90;0.90;;;;;6.70;96189.00;;;;5076662;28;20192;-65
2023/05/02 03:49:07;;;;;;;0.93;0.93;;;;;6.70;96184.00;;;;5076653;28;20203;-65
2023/05/02 03:51:34;;;;;;;1.20;1.10;;;;;6.70;96188.00;;;;5076563;28;20194;-65
2023/05/02 03:54:02;;;;;;;1.00;1.00;;;;;6.70;96192.00;;;;5076748;28;20205;-65
2023/05/02 03:56:31;;;;;;;1.20;1.20;;;;;6.60;96196.00;;;;5076956;28;20269;-64
2023/05/02 03:58:58;;;;;;;1.03;1.03;;;;;6.70;96196.00;;;;5076431;28;20199;-65
2023/05/02 04:01:25;;;;;;;0.77;0.77;;;;;6.70;96199.00;;;;5076563;28;20288;-65
2023/05/02 04:03:53;;;;;;;0.77;0.77;;;;;6.80;96209.00;;;;5076333;28;20196;-65
2023/05/02 04:06:20;;;;;;;1.00;1.00;;;;;6.90;96208.00;;;;5076208;28;20647;-65
2023/05/02 04:08:47;;;;;;;0.97;0.97;;;;;6.90;96212.00;;;;5076262;28;20187;-65
2023/05/02 04:11:15;;;;;;;0.70;0.70;;;;;7.00;96219.00;;;;5076181;28;20199;-65
2023/05/02 04:13:44;;;;;;;1.20;1.20;;;;;6.80;96214.00;;;;5076006;28;20238;-65
2023/05/02 04:16:11;;;;;;;1.43;0.93;;;;;6.90;96213.00;;;;5058039;28;20696;-65
2023/05/02 04:18:39;;;;;;;1.50;0.90;;;;;6.80;96217.00;;;;5076003;28;20238;-65
2023/05/02 04:21:09;;;;;;;1.03;1.03;;;;;6.90;96214.00;;;;5076239;28;20244;-65
2023/05/02 04:23:36;;;;;;;1.93;1.53;;;;;7.00;96217.00;;;;5076231;28;20211;-65
2023/05/02 04:26:04;;;;;;;0.73;0.73;;;;;7.10;96217.00;;;;5075956;28;20191;-65
2023/05/02 04:28:31;;;;;;;0.73;0.73;;;;;7.20;96212.00;;;;5075940;28;20697;-65
2023/05/02 04:31:00;;;;;;;1.00;1.00;;;;;7.10;96216.00;;;;5075887;28;20279;-65
2023/05/02 04:33:27;;;;;;;2.00;1.80;;;;;7.10;96215.00;;;;5075785;28;20215;-65
2023/05/02 04:35:54;;;;;;;0.97;0.97;;;;;7.20;96217.00;;;;5075750;28;20215;-65
2023/05/02 04:38:22;;;;;;;0.80;0.80;;;;;7.30;96217.00;;;;5075963;28;20199;-65
2023/05/02 04:40:51;;;;;;;0.83;0.83;;;;;7.40;96223.00;;;;5057681;28;20229;-65
2023/05/02 04:43:18;;;;;;;0.70;0.70;;;;;7.50;96221.00;;;;5075546;28;20269;-66
2023/05/02 04:45:46;;;;;;;1.53;0.93;;;;;7.50;96229.00;;;;5075338;28;20200;-65
2023/05/02 04:48:14;;;;;;;1.27;1.27;;;;;7.30;96221.00;;;;5075593;28;20240;-64
2023/05/02 04:50:42;;;;;;;0.73;0.73;;;;;7.40;96218.00;;;;5075516;28;20195;-66
2023/05/02 04:53:10;;;;;;;0.80;0.80;;;;;7.40;96232.00;;;;5057426;28;20219;-64
2023/05/02 04:55:37;;;;;;;0.70;0.70;;;;;7.30;96238.00;;;;5075344;28;20221;-66
2023/05/02 04:58:04;;;;;;;0.80;0.80;;;;;7.30;96232.00;;;;5075327;28;20218;-64
2023/05/02 05:00:32;;;;;;;0.90;0.90;;;;;7.40;96229.00;;;;5057370;28;20207;-64
2023/05/02 05:02:59;;;;;;;1.00;1.00;;;;;7.50;96233.00;;;;5075240;28;20211;-64
2023/05/02 05:05:28;;;;;;;1.83;1.73;;;;;7.60;96231.00;;;;5075280;28;20191;-64
2023/05/02 05:07:55;;;;;;;1.00;1.00;;;;;7.70;96247.00;;;;5075152;28;20195;-64
2023/05/02 05:10:22;;;;;;;1.00;1.00;;;;;7.70;96250.00;;;;5075135;28;20188;-65
2023/05/02 05:12:50;;;;;;;1.17;1.17;;;;;7.70;96264.00;;;;5074997;28;20214;-64
2023/05/02 05:15:19;;;;;;;1.27;1.17;;;;;7.50;96259.00;;;;5074969;28;20207;-64
2023/05/02 05:17:46;;;;;;;0.93;0.93;;;;;7.40;96276.00;;;;5074980;28;20677;-64
2023/05/02 05:20:14;;;;;;;0.70;0.70;;;;;7.30;96278.00;;;;5075042;28;20246;-65
2023/05/02 05:22:43;;;;;;;1.10;1.10;;;;;7.40;96280.00;;;;5074732;28;20721;-64
2023/05/02 05:25:11;;;;;;;0.90;0.90;;;;;7.50;96293.00;;;;5074832;28;20196;-65
2023/05/02 05:27:38;;;;;;;0.83;0.83;;;;;7.50;96289.00;;;;5075052;28;20562;-64
2023/05/02 05:30:07;;;;;;;1.00;1.00;;;;;7.60;96289.00;;;;5074714;28;20195;-64
2023/05/02 05:32:35;;;;;;;1.30;1.20;;;;;7.70;96301.00;;;;5074595;28;20231;-64
2023/05/02 05:35:03;;;;;;;1.10;1.10;;;;;7.60;96300.00;;;;5074599;28;20223;-65
2023/05/02 05:37:30;;;;;;;0.90;0.90;;;;;7.50;96298.00;;;;5074463;28;20211;-65
2023/05/02 05:39:59;;;;;;;0.90;0.90;;;;;7.60;96302.00;;;;5056607;28;20658;-64
2023/05/02 05:42:27;;;;;;;1.03;1.03;;;;;7.80;96296.00;;;;5075079;28;20223;-65
2023/05/02 05:44:54;;;;;;;1.00;1.00;;;;;7.90;96308.00;;;;5074700;28;20202;-65
2023/05/02 05:47:22;;;;;;;1.43;1.33;;;;;7.90;96311.00;;;;5074930;28;20192;-64
2023/05/02 05:49:53;;;;;;;1.53;1.43;;;;;8.00;96308.00;;;;5074852;28;20253;-65
2023/05/02 05:52:20;;;;;;;2.20;1.83;;;;;8.00;96299.00;;;;5074449;28;20298;-64
2023/05/02 05:54:48;;;;;;;0.67;0.67;;;;;8.10;96308.00;;;;5074247;28;20708;-65
2023/05/02 05:57:16;;;;;;;1.37;1.27;;;;;8.20;96308.00;;;;5072968;28;20230;-65
2023/05/02 05:59:44;;;;;;;0.73;0.73;;;;;8.20;96313.00;;;;5074120;28;20200;-65
2023/05/02 06:02:11;;;;;;;0.77;0.77;;;;;8.30;96316.00;;;;5074084;28;20215;-65
2023/05/02 06:04:39;;;;;;;0.93;0.93;;;;;8.30;96319.00;;;;5074042;28;20199;-65
2023/05/02 06:07:06;;;;;;;1.00;1.00;;;;;8.40;96322.00;;;;5073987;28;20271;-65
2023/05/02 06:09:34;;;;;;;1.27;1.17;;;;;8.40;96324.00;;;;5073944;28;20187;-64
2023/05/02 06:12:02;;;;;;;0.70;0.70;;;;;8.50;96317.00;;;;5073882;28;20222;-64
2023/05/02 06:14:31;;;;;;;0.80;0.80;;;;;8.50;96326.00;;;;5073939;28;20195;-65
2023/05/02 06:16:59;;;;;;;1.23;1.20;;;;;8.60;96333.00;;;;5073936;28;20227;-65
2023/05/02 06:19:27;;;;;;;1.03;1.03;;;;;8.80;96330.00;;;;5074040;28;20192;-66
2023/05/02 06:21:54;;;;;;;1.00;1.00;;;;;8.80;96333.00;;;;5073646;28;20682;-66
2023/05/02 06:24:22;;;;;;;1.10;1.10;;;;;8.90;96331.00;;;;5073662;28;20219;-65
2023/05/02 06:26:50;;;;;;;0.97;0.97;;;;;9.10;96332.00;;;;5073613;28;20183;-65
2023/05/02 06:29:17;;;;;;;0.97;0.97;;;;;9.10;96339.00;;;;5073636;28;20192;-65
2023/05/02 06:31:46;;;;;;;1.57;1.47;;;;;9.20;96345.00;;;;5073680;28;20214;-65
2023/05/02 06:34:14;;;;;;;1.23;1.23;;;;;9.30;96348.00;;;;5073782;28;20630;-66
2023/05/02 06:36:41;;;;;;;2.23;1.43;;;;;9.50;96352.00;;;;5073471;28;20223;-65
2023/05/02 06:39:08;;;;;;;0.97;0.97;;;;;9.60;96351.00;;;;5052203;28;20206;-61
2023/05/02 06:41:36;;;;;;;1.03;1.03;;;;;9.80;96354.00;;;;5068464;28;20527;-62
2023/05/02 06:44:03;;;;;;;1.03;1.03;;;;;9.80;96349.00;;;;5070775;28;20657;-64
2023/05/02 06:46:31;;;;;;;0.80;0.80;;;;;9.90;96358.00;;;;5084564;22;20248;-61
2023/05/02 06:48:59;;;;;;;0.90;0.90;;;;;9.90;96355.00;;;;5071624;28;20238;-61
2023/05/02 06:51:27;;;;;;;1.00;1.00;;;;;10.00;96353.00;;;;5069333;28;20199;-60
2023/05/02 06:53:54;;;;;;;0.87;0.87;;;;;10.10;96365.00;;;;5071123;28;20308;-62
2023/05/02 06:56:22;;;;;;;1.27;1.27;;;;;10.10;96363.00;;;;5070997;28;20219;-62
2023/05/02 06:58:50;;;;;;;1.13;1.10;;;;;10.20;96373.00;;;;5071027;28;20199;-60
2023/05/02 07:01:17;;;;;;;1.00;1.00;;;;;10.20;96375.00;;;;5053055;28;20210;-60
2023/05/02 07:03:45;;;;;;;1.40;1.30;;;;;10.30;96382.00;;;;5062077;28;20202;-61
2023/05/02 07:06:14;;;;;;;1.03;1.03;;;;;10.30;96383.00;;;;5090555;28;20213;-61
2023/05/02 07:08:42;;;;;;;1.07;1.07;;;;;10.20;96385.00;;;;5090647;28;20198;-61
2023/05/02 07:11:09;;;;;;;1.10;1.10;;;;;10.30;96384.00;;;;5091143;28;20206;-62
2023/05/02 07:13:36;;;;;;;1.37;1.33;;;;;10.40;96380.00;;;;5091002;28;20194;-61
2023/05/02 07:16:04;;;;;;;1.43;1.33;;;;;10.50;96386.00;;;;5090874;28;20627;-62
2023/05/02 07:18:32;;;;;;;0.90;0.90;;;;;10.50;96385.00;;;;5091046;28;20224;-62
2023/05/02 07:21:00;;;;;;;2.20;1.67;;;;;10.60;96399.00;;;;5091048;28;20253;-62
2023/05/02 07:23:28;;;;;;;2.07;1.97;;;;;10.70;96404.00;;;;5090012;28;20251;-61
2023/05/02 07:25:56;;;;;;;1.23;1.13;;;;;10.80;96404.00;;;;5090854;28;20263;-62
2023/05/02 07:28:23;;;;;;;1.03;1.03;;;;;11.00;96412.00;;;;5090913;28;20197;-61
2023/05/02 07:30:51;;;;;;;1.30;1.23;;;;;11.20;96408.00;;;;5090868;28;20195;-62
2023/05/02 07:33:18;;;;;;;2.17;2.03;;;;;11.20;96409.00;;;;5070582;28;20203;-61
2023/05/02 07:35:46;;;;;;;1.77;1.67;;;;;11.30;96406.00;;;;5048164;28;20231;-62
2023/05/02 07:38:14;;;;;;;3.43;1.93;;;;;11.30;96403.00;;;;5069922;28;20231;-62
2023/05/02 07:40:43;;;;;;;2.93;1.97;;;;;11.40;96402.00;;;;5071062;28;20218;-61
2023/05/02 07:43:10;;;;;;;2.27;1.87;;;;;11.40;96410.00;;;;5065794;28;20195;-62
2023/05/02 07:45:37;;;;;;;3.80;2.23;;;;;11.20;96408.00;;;;5070743;28;20226;-62
2023/05/02 07:48:05;;;;;;;1.80;1.70;;;;;11.20;96412.00;;;;5070720;28;20612;-62
2023/05/02 07:50:32;;;;;;;2.27;2.13;;;;;11.20;96413.00;;;;5070621;28;20199;-62
2023/05/02 07:53:00;;;;;;;2.27;2.07;;;;;11.30;96419.00;;;;5070796;28;20192;-61
2023/05/02 07:55:27;;;;;;;3.17;2.87;;;;;11.30;96426.00;;;;5070563;28;20215;-62
2023/05/02 07:57:56;;;;;;;2.87;2.67;;;;;11.30;96426.00;;;;5052564;28;20694;-62
2023/05/02 08:00:23;;;;;;;3.13;2.80;;;;;11.20;96439.00;;;;5070441;28;20203;-62
2023/05/02 08:02:51;;;;;;;2.47;2.33;;;;;11.20;96436.00;;;;5070486;28;20203;-62
2023/05/02 08:05:18;;;;;;;2.03;1.93;;;;;11.20;96436.00;;;;5070395;28;20785;-61
2023/05/02 08:07:46;;;;;;;2.57;2.37;;;;;11.00;96431.00;;;;5070712;28;20232;-61
2023/05/02 08:10:13;;;;;;;3.20;2.90;;;;;11.20;96434.00;;;;5070064;28;20196;-62
2023/05/02 08:12:41;;;;;;;4.50;4.10;;;;;11.10;96440.00;;;;5070801;28;20207;-61
2023/05/02 08:15:12;;;;;;;4.37;3.70;;;;;11.20;96440.00;;;;5069966;28;20226;-61
2023/05/02 08:17:40;;;;;;;4.90;4.60;;;;;11.40;96448.00;;;;5070542;28;20728;-61
2023/05/02 08:20:08;;;;;;;4.63;4.23;;;;;11.50;96448.00;;;;5071490;28;20191;-62
2023/05/02 08:22:35;;;;;;;4.30;3.97;;;;;11.50;96444.00;;;;5056242;28;20203;-61
2023/05/02 08:25:03;;;;;;;3.80;3.43;;;;;11.70;96446.00;;;;5073377;28;20219;-61
2023/05/02 08:27:30;;;;;;;4.77;4.37;;;;;11.90;96446.00;;;;5074128;28;20238;-61
2023/05/02 08:29:58;;;;;;;3.77;3.47;;;;;11.60;96436.00;;;;5073300;28;20192;-61
2023/05/02 08:32:28;;;;;;;5.07;4.57;;;;;11.80;96437.00;;;;5056072;28;20203;-61
2023/05/02 08:34:59;;;;;;;4.13;3.73;;;;;12.10;96440.00;;;;5073631;28;20218;-61
2023/05/02 08:37:26;;;;;;;3.47;3.20;;;;;12.20;96445.00;;;;5073442;28;20261;-62
2023/05/02 08:39:56;;;;;;;6.80;4.17;;;;;12.40;96441.00;;;;5055630;28;20199;-62
2023/05/02 08:42:24;;;;;;;6.77;5.87;;;;;12.60;96447.00;;;;5073441;28;20191;-61
2023/05/02 08:44:52;;;;;;;10.60;5.13;;;;;12.70;96438.00;;;;5054868;28;20229;-62
2023/05/02 08:47:20;;;;;;;7.43;5.73;;;;;12.90;96446.00;;;;5074030;28;20283;-62
2023/05/02 08:49:50;;;;;;;3.37;3.07;;;;;12.90;96452.00;;;;5055357;28;20199;-61
2023/05/02 08:52:19;;;;;;;3.87;3.57;;;;;13.10;96448.00;;;;5055743;28;20689;-61
2023/05/02 08:54:48;;;;;;;5.23;4.87;;;;;13.30;96443.00;;;;5054854;28;20723;-62
2023/05/02 08:57:15;;;;;;;8.10;6.17;;;;;13.50;96457.00;;;;5073562;28;20617;-62
2023/05/02 08:59:43;;;;;;;2.83;2.63;;;;;13.50;96464.00;;;;5070791;28;20655;-62
2023/05/02 09:02:22;;;;;;;5.50;4.97;;;;;13.00;96462.00;;;;5071772;28;20256;-62
2023/05/02 09:04:57;;;;;;;3.40;3.10;;;;;13.10;96464.00;;;;5074302;28;20215;-62
2023/05/02 09:07:25;;;;;;;4.87;4.47;;;;;13.20;96455.00;;;;5056181;28;20552;-62
2023/05/02 09:09:53;;;;;;;4.53;4.13;;;;;13.20;96464.00;;;;5074275;28;20204;-63
2023/05/02 09:12:26;;;;;;;6.30;5.70;;;;;13.70;96466.00;;;;5074293;28;20201;-62
2023/05/02 09:15:09;;;;;;;6.17;4.10;;;;;14.20;96456.00;;;;5074011;28;20216;-62
2023/05/02 09:17:44;;;;;;;4.33;3.93;;;;;14.20;96460.00;;;;5074020;28;20214;-61
2023/05/02 09:20:14;;;;;;;4.27;3.97;;;;;14.50;96468.00;;;;5073965;28;20202;-63
2023/05/02 09:22:49;;;;;;;4.83;4.40;;;;;14.70;96473.00;;;;5074072;28;20191;-62
2023/05/02 09:25:17;;;;;;;5.87;5.37;;;;;14.30;96477.00;;;;5073565;28;20751;-62
2023/05/02 09:27:52;;;;;;;4.50;4.10;;;;;14.30;96487.00;;;;5073891;28;20240;-63
2023/05/02 09:30:21;;;;;;;4.30;3.97;;;;;14.00;96476.00;;;;5073668;28;20201;-62
2023/05/02 09:32:50;;;;;;;2.53;2.33;;;;;14.20;96479.00;;;;5055722;28;20682;-63
2023/05/02 09:35:23;;;;;;;11.77;4.03;;;;;14.40;96469.00;;;;5073605;28;20219;-61
2023/05/02 09:37:52;;;;;;;6.53;5.07;;;;;14.70;96479.00;;;;5073287;28;20294;-62
2023/05/02 09:40:20;;;;;;;4.20;3.90;;;;;14.40;96489.00;;;;5073913;28;20203;-62
2023/05/02 09:42:47;;;;;;;3.03;2.73;;;;;14.60;96491.00;;;;5073586;28;20210;-62
2023/05/02 09:45:23;;;;;;;3.33;3.13;;;;;14.40;96491.00;;;;5073232;28;20230;-62
2023/05/02 09:47:50;;;;;;;3.90;3.50;;;;;14.20;96480.00;;;;5073404;28;20202;-62
2023/05/02 09:50:36;;;;;;;4.97;4.50;;;;;14.30;96484.00;;;;5073579;28;20680;-61
2023/05/02 09:53:05;;;;;;;4.17;3.80;;;;;14.10;96475.00;;;;5073278;28;20218;-61
2023/05/02 09:55:32;;;;;;;4.87;4.17;;;;;14.20;96475.00;;;;5073511;28;20227;-61
2023/05/02 09:58:00;;;;;;;3.43;2.30;;;;;14.50;96491.00;;;;5073106;28;20223;-62
2023/05/02 10:00:41;;;;;;;4.07;2.47;;;;;14.30;96490.00;;;;5055213;28;20233;-62
2023/05/02 10:03:09;;;;;;;2.63;2.53;;;;;14.70;96483.00;;;;5073025;28;20206;-62
2023/05/02 10:05:39;;;;;;;4.70;4.27;;;;;14.90;96479.00;;;;5072952;28;20216;-63
2023/05/02 10:08:08;;;;;;;3.80;3.53;;;;;15.20;96479.00;;;;5073013;28;20195;-63
2023/05/02 10:10:40;;;;;;;3.00;2.80;;;;;15.70;96479.00;;;;5072861;28;20245;-61
2023/05/02 10:13:18;;;;;;;3.50;3.30;;;;;16.00;96472.00;;;;5073016;28;20187;-62
2023/05/02 10:15:58;;;;;;;5.30;3.13;;;;;16.20;96477.00;;;;5072797;28;20636;-62
2023/05/02 10:18:36;;;;;;;3.77;3.33;;;;;16.40;96483.00;;;;5072873;28;20288;-62
2023/05/02 10:21:10;;;;;;;3.17;2.87;;;;;16.30;96471.00;;;;5054902;28;20203;-62
2023/05/02 10:23:52;;;;;;;2.77;2.57;;;;;15.90;96471.00;;;;5073007;28;20191;-62
2023/05/02 10:26:31;;;;;;;4.40;4.00;;;;;16.10;96477.00;;;;5054349;28;20254;-62
2023/05/02 10:29:01;;;;;;;4.57;3.43;;;;;16.50;96466.00;;;;5054754;28;20206;-62
2023/05/02 10:31:41;;;;;;;2.33;2.23;;;;;16.70;96467.00;;;;5073010;28;20199;-62
2023/05/02 10:34:15;;;;;;;3.20;2.90;;;;;16.80;96462.00;;;;5054696;28;21526;-61
2023/05/02 10:36:53;;;;;;;19.00;3.00;;;;;17.00;96483.00;;;;5054586;28;20735;-62
2023/05/02 10:39:37;;;;;;;6.20;3.33;;;;;16.30;96487.00;;;;5072736;28;20217;-62
2023/05/02 10:42:09;;;;;;;3.67;3.20;;;;;15.90;96479.00;;;;5072054;28;20654;-62
2023/05/02 10:44:47;;;;;;;2.73;2.57;;;;;15.60;96479.00;;;;5072343;28;20759;-62
2023/05/02 10:47:26;;;;;;;2.27;2.17;;;;;16.00;96487.00;;;;5072573;28;20700;-62
2023/05/02 10:50:10;;;;;;;2.87;2.67;;;;;15.90;96483.00;;;;5072334;28;20195;-62
2023/05/02 10:52:58;;;;;;;2.73;2.53;;;;;15.90;96460.00;;;;5054575;28;20202;-61
2023/05/02 10:55:31;;;;;;;3.03;2.83;;;;;15.80;96468.00;;;;5054176;28;20220;-61
2023/05/02 10:58:29;;;;;;;2.00;1.90;;;;;16.60;96450.00;;;;5072327;28;20233;-61
2023/05/02 11:01:38;;;;;;;5.80;3.63;;;;;17.40;96451.00;;;;5040930;28;20214;-62
2023/05/02 11:04:10;;;;;;;2.70;2.57;;;;;17.50;96480.00;;;;5054445;28;20207;-61
2023/05/02 11:06:53;;;;;;;2.07;1.93;;;;;17.70;96484.00;;;;5072166;28;20622;-62
2023/05/02 11:09:34;;;;;;;3.47;3.03;;;;;17.70;96473.00;;;;5071585;28;20203;-62
2023/05/02 11:12:03;;;;;;;3.27;2.63;;;;;17.40;96473.00;;;;5064610;28;20203;-61
2023/05/02 11:14:49;;;;;;;3.13;2.93;;;;;16.50;96471.00;;;;5051463;28;20728;-63
2023/05/02 11:17:19;;;;;;;2.30;2.20;;;;;17.10;96462.00;;;;5071094;28;20191;-64
2023/05/02 11:20:26;;;;;;;3.53;3.03;;;;;17.40;96453.00;;;;5071357;28;20225;-63
2023/05/02 11:22:55;;;;;;;2.73;2.53;;;;;17.70;96458.00;;;;5070769;28;20194;-62
2023/05/02 11:25:35;;;;;;;1.83;1.73;;;;;17.80;96451.00;;;;5070597;28;20301;-63
2023/05/02 11:28:04;;;;;;;3.57;2.80;;;;;17.50;96451.00;;;;5053066;28;20202;-63
2023/05/02 11:30:43;;;;;;;3.40;3.10;;;;;17.40;96457.00;;;;5070697;28;20231;-63
2023/05/02 11:33:16;;;;;;;5.43;4.13;;;;;17.10;96448.00;;;;5052550;28;20219;-67
2023/05/02 11:35:46;;;;;;;3.03;2.73;;;;;17.30;96440.00;;;;5070398;28;20318;-65
2023/05/02 11:38:19;;;;;;;3.47;3.17;;;;;17.10;96443.00;;;;5070779;28;20238;-64
2023/05/02 11:40:56;;;;;;;3.03;2.83;;;;;17.30;96436.00;;;;5070577;28;20191;-63
2023/05/02 11:43:25;;;;;;;3.87;3.47;;;;;17.90;96444.00;;;;5052905;28;20654;-63
2023/05/02 11:45:53;;;;;;;2.27;2.07;;;;;18.10;96443.00;;;;5070195;28;20234;-64
2023/05/02 11:48:22;;;;;;;5.43;3.67;;;;;18.20;96443.00;;;;5070462;28;20219;-61
2023/05/02 11:50:54;;;;;;;2.63;2.43;;;;;17.80;96450.00;;;;5070455;28;20536;-61
2023/05/02 11:53:22;;;;;;;2.90;2.60;;;;;16.90;96463.00;;;;5070914;28;20253;-60
2023/05/02 11:55:51;;;;;;;1.37;1.37;;;;;17.20;96441.00;;;;5074174;28;20224;-61
2023/05/02 11:58:23;;;;;;;3.00;2.80;;;;;17.40;96443.00;;;;5074279;28;20335;-61
2023/05/02 12:00:51;;;;;;;2.83;2.63;;;;;17.00;96450.00;;;;5074665;28;20256;-62
2023/05/02 12:03:36;;;;;;;2.70;2.50;;;;;18.20;96448.00;;;;5073735;28;20203;-61
2023/05/02 12:06:10;;;;;;;1.77;1.67;;;;;18.90;96446.00;;;;5074410;28;20215;-60
2023/05/02 12:08:39;;;;;;;2.73;2.30;;;;;19.90;96444.00;;;;5073521;28;20231;-61
2023/05/02 12:11:08;;;;;;;1.23;1.20;;;;;19.60;96464.00;;;;5074432;28;20195;-60
2023/05/02 12:13:46;;;;;;;5.13;3.13;;;;;19.00;96471.00;;;;5074049;28;20199;-60
2023/05/02 12:16:14;;;;;;;2.27;2.17;;;;;18.60;96473.00;;;;5073829;28;20273;-60
2023/05/02 12:18:42;;;;;;;4.60;2.30;;;;;18.30;96472.00;;;;5073467;28;20264;-61
2023/05/02 12:21:09;;;;;;;2.80;2.60;;;;;18.50;96464.00;;;;5074117;28;20203;-61
2023/05/02 12:23:37;;;;;;;1.67;1.57;;;;;18.20;96463.00;;;;5073838;28;20195;-61
2023/05/02 12:26:17;;;;;;;2.20;2.10;;;;;17.80;96475.00;;;;5073555;28;20694;-60
2023/05/02 12:28:51;;;;;;;3.20;2.90;;;;;18.10;96473.00;;;;5051263;28;20253;-61
2023/05/02 12:31:18;;;;;;;2.23;2.10;;;;;18.70;96470.00;;;;5073930;28;20525;-61
2023/05/02 12:33:49;;;;;;;3.07;2.77;;;;;19.20;96469.00;;;;5055705;28;20730;-61
2023/05/02 12:36:16;;;;;;;4.57;2.50;;;;;19.50;96470.00;;;;5073669;28;20204;-61
2023/05/02 12:38:49;;;;;;;3.13;2.93;;;;;19.60;96471.00;;;;5073094;28;20686;-60